createdAt,value
2023-02-02T00:01:01.738Z,96192.09
2023-02-02T00:03:28.266Z,96193.91
2023-02-02T00:05:56.108Z,96229.94
2023-02-02T00:08:24.145Z,96256.88
2023-02-02T00:10:51.992Z,96241.97
2023-02-02T00:13:19.627Z,96252.25
2023-02-02T00:15:46.131Z,96261.56
2023-02-02T00:18:12.820Z,96282.53
2023-02-02T00:20:39.566Z,96313.47
2023-02-02T00:23:06.080Z,96332.16
2023-02-02T00:25:32.860Z,96350.13
2023-02-02T00:27:59.411Z,96417.34
2023-02-02T00:30:25.956Z,96451.44
2023-02-02T00:32:53.269Z,96454.63
2023-02-02T00:35:19.887Z,96459.91
2023-02-02T00:37:47.648Z,96434.22
2023-02-02T00:40:16.072Z,96426.19
2023-02-02T00:42:43.601Z,96402.94
2023-02-02T00:45:15.911Z,96347.34
2023-02-02T00:47:44.819Z,96332.28
2023-02-02T00:50:12.660Z,96279.09
2023-02-02T00:52:39.667Z,96240.97
2023-02-02T00:55:06.531Z,96226.47
2023-02-02T00:57:33.063Z,96235.78
2023-02-02T00:59:59.745Z,96237.91
2023-02-02T01:02:26.387Z,96245.97
2023-02-02T01:04:52.947Z,96244.91
2023-02-02T01:07:19.493Z,96236.06
2023-02-02T01:09:45.995Z,96246.56
2023-02-02T01:12:12.526Z,96250.06
2023-02-02T01:14:40.406Z,96299.34
2023-02-02T01:17:08.031Z,96336.91
2023-02-02T01:19:34.536Z,96407.28
2023-02-02T01:22:03.500Z,96469.66
2023-02-02T01:24:30.117Z,96491.28
2023-02-02T01:26:56.574Z,96494.91
2023-02-02T01:29:23.076Z,96528.72
2023-02-02T01:31:50.056Z,96467.84
2023-02-02T01:34:16.551Z,96459.25
2023-02-02T01:36:43.024Z,96460.53
2023-02-02T01:39:10.685Z,96444.63
2023-02-02T01:41:37.194Z,96446.28
2023-02-02T01:44:04.912Z,96434.06
2023-02-02T01:46:32.689Z,96434.56
2023-02-02T01:48:59.259Z,96444.63
2023-02-02T01:51:29.878Z,96441.97
2023-02-02T01:53:58.678Z,96440.41
2023-02-02T01:56:28.839Z,96438.81
2023-02-02T01:58:56.875Z,96449.38
2023-02-02T02:01:23.741Z,96448.84
2023-02-02T02:03:50.507Z,96486.88
2023-02-02T02:06:18.532Z,96480.75
2023-02-02T02:08:47.367Z,96494.22
2023-02-02T02:11:15.167Z,96531.28
2023-02-02T02:14:00.231Z,96553.44
2023-02-02T02:16:34.416Z,96548.69
2023-02-02T02:19:09.930Z,96541.72
2023-02-02T02:21:58.732Z,96576.66
2023-02-02T02:24:53.318Z,96573.44
2023-02-02T02:27:34.120Z,96588.47
2023-02-02T02:30:03.699Z,96600.91
2023-02-02T02:32:40.792Z,96610.91
2023-02-02T02:35:10.481Z,96603.97
2023-02-02T02:37:57.669Z,96610.56
2023-02-02T02:40:36.943Z,96606.63
2023-02-02T02:43:13.080Z,96601.59
2023-02-02T02:45:40.951Z,96613.84
2023-02-02T02:48:10.460Z,96649.00
2023-02-02T02:50:37.318Z,96691.19
2023-02-02T02:53:13.116Z,96702.81
2023-02-02T02:55:54.923Z,96717.34
2023-02-02T02:58:35.797Z,96706.50
2023-02-02T03:01:08.640Z,96697.00
2023-02-02T03:03:38.291Z,96718.66
2023-02-02T03:06:10.700Z,96737.66
2023-02-02T03:08:42.496Z,96747.09
2023-02-02T03:11:12.489Z,96734.44
2023-02-02T03:13:40.677Z,96704.41
2023-02-02T03:16:08.731Z,96669.09
2023-02-02T03:18:35.511Z,96666.44
2023-02-02T03:21:02.183Z,96661.69
2023-02-02T03:23:28.684Z,96664.06
2023-02-02T03:25:55.683Z,96668.78
2023-02-02T03:28:23.565Z,96680.13
2023-02-02T03:30:52.276Z,96697.31
2023-02-02T03:33:19.241Z,96702.31
2023-02-02T03:35:45.817Z,96708.66
2023-02-02T03:38:14.219Z,96716.81
2023-02-02T03:40:41.560Z,96698.06
2023-02-02T03:43:08.247Z,96656.88
2023-02-02T03:45:40.791Z,96622.50
2023-02-02T03:48:07.404Z,96572.81
2023-02-02T03:50:33.960Z,96557.25
2023-02-02T03:53:00.459Z,96565.94
2023-02-02T03:55:27.059Z,96609.84
2023-02-02T03:57:53.660Z,96698.31
2023-02-02T04:00:20.589Z,96714.38
2023-02-02T04:02:47.145Z,96715.16
2023-02-02T04:05:13.818Z,96704.84
2023-02-02T04:07:40.713Z,96718.84
2023-02-02T04:10:07.352Z,96760.84
2023-02-02T04:12:33.898Z,96804.38
2023-02-02T04:15:00.581Z,96825.72
2023-02-02T04:17:28.228Z,96816.25
2023-02-02T04:19:58.318Z,96824.69
2023-02-02T04:22:27.007Z,96829.97
2023-02-02T04:24:53.555Z,96835.22
2023-02-02T04:27:20.059Z,96832.06
2023-02-02T04:29:46.651Z,96848.97
2023-02-02T04:32:15.677Z,96874.81
2023-02-02T04:34:42.396Z,96886.47
2023-02-02T04:37:10.144Z,96909.41
2023-02-02T04:39:38.506Z,96931.56
2023-02-02T04:42:06.258Z,96939.81
2023-02-02T04:44:34.006Z,96957.19
2023-02-02T04:47:00.606Z,96988.84
2023-02-02T04:49:28.368Z,97003.13
2023-02-02T04:51:54.901Z,97062.38
2023-02-02T04:54:21.584Z,97082.97
2023-02-02T04:56:48.159Z,97096.94
2023-02-02T04:59:14.658Z,97098.56
2023-02-02T05:01:41.243Z,97096.75
2023-02-02T05:04:07.774Z,97097.56
2023-02-02T05:06:35.400Z,97103.91
2023-02-02T05:09:01.949Z,97114.97
2023-02-02T05:11:28.513Z,97105.53
2023-02-02T05:13:56.189Z,97112.97
2023-02-02T05:16:26.420Z,97125.34
2023-02-02T05:18:55.651Z,97117.19
2023-02-02T05:21:23.654Z,97131.97
2023-02-02T05:23:50.250Z,97123.03
2023-02-02T05:26:19.490Z,97153.00
2023-02-02T05:28:47.542Z,97139.38
2023-02-02T05:31:14.556Z,97132.84
2023-02-02T05:33:41.115Z,97148.09
2023-02-02T05:36:07.765Z,97157.19
2023-02-02T05:38:34.837Z,97145.56
2023-02-02T05:41:02.567Z,97159.72
2023-02-02T05:43:31.490Z,97162.91
2023-02-02T05:45:58.202Z,97193.88
2023-02-02T05:48:24.912Z,97225.41
2023-02-02T05:50:57.172Z,97227.94
2023-02-02T05:53:23.908Z,97179.06
2023-02-02T05:55:50.413Z,97191.91
2023-02-02T05:58:16.970Z,97210.53
2023-02-02T06:00:44.768Z,97195.81
2023-02-02T06:03:13.114Z,97189.44
2023-02-02T06:05:39.874Z,97198.38
2023-02-02T06:08:06.673Z,97209.16
2023-02-02T06:10:34.140Z,97188.84
2023-02-02T06:13:00.720Z,97196.66
2023-02-02T06:15:28.987Z,97202.66
2023-02-02T06:17:56.817Z,97222.88
2023-02-02T06:20:24.529Z,97210.31
2023-02-02T06:22:51.093Z,97186.06
2023-02-02T06:25:17.559Z,97195.53
2023-02-02T06:27:46.335Z,97186.56
2023-02-02T06:30:13.444Z,97194.44
2023-02-02T06:32:41.254Z,97195.72
2023-02-02T06:35:08.121Z,97199.56
2023-02-02T06:37:35.204Z,97191.66
2023-02-02T06:40:01.825Z,97216.31
2023-02-02T06:42:28.365Z,97223.69
2023-02-02T06:44:56.085Z,97212.41
2023-02-02T06:47:22.603Z,97231.09
2023-02-02T06:49:49.089Z,97214.84
2023-02-02T06:52:15.643Z,97229.50
2023-02-02T06:54:42.530Z,97235.25
2023-02-02T06:57:10.736Z,97229.00
2023-02-02T06:59:38.290Z,97243.56
2023-02-02T07:02:04.872Z,97253.03
2023-02-02T07:04:31.449Z,97239.22
2023-02-02T07:06:58.033Z,97234.75
2023-02-02T07:09:24.585Z,97252.66
2023-02-02T07:11:52.309Z,97253.28
2023-02-02T07:14:18.764Z,97244.81
2023-02-02T07:16:46.617Z,97222.56
2023-02-02T07:19:13.055Z,97225.91
2023-02-02T07:21:39.724Z,97235.41
2023-02-02T07:24:06.529Z,97240.69
2023-02-02T07:26:34.410Z,97240.13
2023-02-02T07:29:00.958Z,97226.03
2023-02-02T07:31:27.786Z,97241.47
2023-02-02T07:33:54.438Z,97248.41
2023-02-02T07:36:22.105Z,97246.63
2023-02-02T07:38:50.360Z,97257.19
2023-02-02T07:41:17.965Z,97238.75
2023-02-02T07:43:46.488Z,97216.69
2023-02-02T07:46:14.413Z,97223.56
2023-02-02T07:48:41.176Z,97221.66
2023-02-02T07:51:08.895Z,97205.19
2023-02-02T07:53:35.711Z,97192.00
2023-02-02T07:56:15.998Z,97202.28
2023-02-02T07:58:44.715Z,97191.81
2023-02-02T08:01:12.541Z,97181.03
2023-02-02T08:03:39.660Z,97211.81
2023-02-02T08:06:10.440Z,97259.84
2023-02-02T08:08:36.913Z,97255.81
2023-02-02T08:11:03.384Z,97240.63
2023-02-02T08:13:32.242Z,97239.09
2023-02-02T08:16:00.201Z,97254.34
2023-02-02T08:18:26.729Z,97238.66
2023-02-02T08:20:53.241Z,97238.66
2023-02-02T08:23:23.684Z,97227.13
2023-02-02T08:25:50.945Z,97206.66
2023-02-02T08:28:19.458Z,97196.94
2023-02-02T08:30:46.458Z,97203.81
2023-02-02T08:33:13.108Z,97234.31
2023-02-02T08:35:43.775Z,97244.69
2023-02-02T08:38:11.191Z,97249.28
2023-02-02T08:40:37.812Z,97261.31
2023-02-02T08:43:04.700Z,97276.25
2023-02-02T08:46:00.250Z,97323.78
2023-02-02T08:48:19.889Z,97367.09
2023-02-02T08:50:51.442Z,97383.09
2023-02-02T08:53:17.965Z,97387.97
2023-02-02T08:55:44.473Z,97434.44
2023-02-02T08:58:10.962Z,97464.00
2023-02-02T09:00:37.702Z,97469.44
2023-02-02T09:03:04.469Z,97488.25
2023-02-02T09:05:31.310Z,97530.25
2023-02-02T09:07:59.061Z,97538.34
2023-02-02T09:10:25.510Z,97540.09
2023-02-02T09:12:53.305Z,97544.97
2023-02-02T09:15:22.008Z,97558.25
2023-02-02T09:17:50.000Z,97568.41
2023-02-02T09:20:19.682Z,97588.03
2023-02-02T09:22:48.450Z,97591.31
2023-02-02T09:25:15.269Z,97596.09
2023-02-02T09:27:43.314Z,97609.88
2023-02-02T09:30:10.111Z,97621.56
2023-02-02T09:32:36.756Z,97628.47
2023-02-02T09:35:04.745Z,97650.22
2023-02-02T09:37:33.814Z,97671.47
2023-02-02T09:40:01.687Z,97678.38
2023-02-02T09:43:04.200Z,97707.00
2023-02-02T09:45:58.024Z,97716.88
2023-02-02T09:48:42.290Z,97736.78
2023-02-02T09:51:13.652Z,97750.63
2023-02-02T09:53:55.755Z,97764.16
2023-02-02T09:56:32.940Z,97769.47
2023-02-02T09:59:13.803Z,97788.28
2023-02-02T10:01:45.861Z,97814.84
2023-02-02T10:04:12.593Z,97821.53
2023-02-02T10:06:43.790Z,97827.13
2023-02-02T10:09:28.882Z,97832.50
2023-02-02T10:12:15.670Z,97831.44
2023-02-02T10:15:01.129Z,97852.16
2023-02-02T10:17:46.773Z,97879.78
2023-02-02T10:20:33.389Z,97901.59
2023-02-02T10:23:19.985Z,97914.34
2023-02-02T10:25:52.572Z,97909.63
2023-02-02T10:28:20.021Z,97910.22
2023-02-02T10:30:50.543Z,97918.72
2023-02-02T10:33:37.810Z,97940.00
2023-02-02T10:36:13.125Z,97957.00
2023-02-02T10:39:04.675Z,97995.25
2023-02-02T10:41:34.340Z,98035.38
2023-02-02T10:44:24.308Z,98070.72
2023-02-02T10:46:55.835Z,98100.75
2023-02-02T10:49:39.993Z,98106.66
2023-02-02T10:52:17.193Z,98123.41
2023-02-02T10:54:55.888Z,98130.38
2023-02-02T10:57:34.255Z,98147.41
2023-02-02T11:00:16.044Z,98163.09
2023-02-02T11:02:42.499Z,98166.56
2023-02-02T11:05:33.597Z,98167.16
2023-02-02T11:08:00.118Z,98178.34
2023-02-02T11:10:28.434Z,98182.34
2023-02-02T11:12:57.156Z,98195.69
2023-02-02T11:15:25.822Z,98220.94
2023-02-02T11:17:52.591Z,98234.22
2023-02-02T11:20:46.692Z,98235.31
2023-02-02T11:23:17.532Z,98253.94
2023-02-02T11:25:44.053Z,98260.84
2023-02-02T11:28:19.105Z,98277.09
2023-02-02T11:30:50.563Z,98277.34
2023-02-02T11:33:20.556Z,98277.41
2023-02-02T11:35:56.479Z,98284.31
2023-02-02T11:38:23.766Z,98293.06
2023-02-02T11:40:54.147Z,98286.44
2023-02-02T11:43:27.588Z,98283.81
2023-02-02T11:45:56.827Z,98269.00
2023-02-02T11:51:21.054Z,98289.53
2023-02-02T11:53:48.927Z,98299.38
2023-02-02T11:56:20.057Z,98319.59
2023-02-02T11:58:48.847Z,98329.69
2023-02-02T12:01:35.758Z,98325.47
2023-02-02T12:04:04.136Z,98324.16
2023-02-02T12:06:36.652Z,98316.53
2023-02-02T12:09:11.856Z,98318.38
2023-02-02T12:11:38.323Z,98329.03
2023-02-02T12:14:06.097Z,98342.09
2023-02-02T12:16:42.099Z,98337.84
2023-02-02T12:19:31.441Z,98335.75
2023-02-02T12:21:58.602Z,98338.97
2023-02-02T12:24:25.101Z,98344.28
2023-02-02T12:26:58.774Z,98341.66
2023-02-02T12:29:28.080Z,98349.66
2023-02-02T12:32:13.612Z,98347.03
2023-02-02T12:34:49.175Z,98348.38
2023-02-02T12:37:15.765Z,98355.59
2023-02-02T12:39:49.176Z,98344.44
2023-02-02T12:42:35.480Z,98333.28
2023-02-02T12:45:22.571Z,98325.88
2023-02-02T12:50:43.028Z,98316.31
2023-02-02T12:53:29.435Z,98317.66
2023-02-02T12:56:12.560Z,98302.50
2023-02-02T12:58:39.168Z,98363.06
2023-02-02T13:01:08.988Z,98366.16
2023-02-02T13:03:54.156Z,98360.66
2023-02-02T13:06:29.832Z,98376.91
2023-02-02T13:09:01.394Z,98375.75
2023-02-02T13:11:52.429Z,98378.47
2023-02-02T13:14:41.985Z,98395.97
2023-02-02T13:17:13.227Z,98409.91
2023-02-02T13:19:45.393Z,98386.34
2023-02-02T13:22:30.608Z,98400.13
2023-02-02T13:25:00.901Z,98412.81
2023-02-02T13:27:29.309Z,98416.69
2023-02-02T13:29:57.775Z,98443.75
2023-02-02T13:32:30.715Z,98444.09
2023-02-02T13:35:19.165Z,98426.38
2023-02-02T13:37:45.756Z,98439.91
2023-02-02T13:40:12.306Z,98429.44
2023-02-02T13:42:49.756Z,98416.47
2023-02-02T13:45:36.220Z,98419.75
2023-02-02T13:48:23.545Z,98440.34
2023-02-02T13:51:04.990Z,98436.09
2023-02-02T13:53:55.717Z,98431.88
2023-02-02T13:56:28.425Z,98427.28
2023-02-02T13:58:54.983Z,98426.38
2023-02-02T14:01:22.856Z,98437.09
2023-02-02T14:03:54.517Z,98455.13
2023-02-02T14:06:23.637Z,98453.47
2023-02-02T14:08:53.252Z,98444.63
2023-02-02T14:11:25.239Z,98474.22
2023-02-02T14:14:18.785Z,98468.22
2023-02-02T14:16:51.170Z,98452.03
2023-02-02T14:19:41.574Z,98448.47
2023-02-02T14:22:14.709Z,98464.09
2023-02-02T14:24:45.027Z,98448.34
2023-02-02T14:27:11.581Z,98472.16
2023-02-02T14:29:59.325Z,98475.47
2023-02-02T14:32:29.445Z,98466.34
2023-02-02T14:35:00.311Z,98478.50
2023-02-02T14:37:26.865Z,98481.59
2023-02-02T14:39:53.349Z,98482.47
2023-02-02T14:43:01.373Z,98469.00
2023-02-02T14:45:35.148Z,98427.28
2023-02-02T14:48:01.899Z,98387.78
2023-02-02T14:50:28.483Z,98377.94
2023-02-02T14:53:18.102Z,98315.84
2023-02-02T14:56:00.413Z,98265.59
2023-02-02T14:58:48.389Z,98231.59
2023-02-02T15:01:17.792Z,98199.56
2023-02-02T15:03:47.378Z,98160.78
2023-02-02T15:06:24.707Z,98139.31
2023-02-02T15:09:09.598Z,98162.56
2023-02-02T15:11:55.057Z,98176.88
2023-02-02T15:14:22.257Z,98125.31
2023-02-02T15:16:49.473Z,98094.84
2023-02-02T15:19:22.075Z,98089.28
2023-02-02T15:21:49.488Z,98075.72
2023-02-02T15:24:21.673Z,98052.91
2023-02-02T15:26:48.713Z,98062.19
2023-02-02T15:29:28.813Z,98065.75
2023-02-02T15:31:55.819Z,98079.53
2023-02-02T15:34:25.707Z,98040.44
2023-02-02T15:36:56.086Z,98047.56
2023-02-02T15:39:42.896Z,98050.59
2023-02-02T15:42:35.293Z,98069.66
2023-02-02T15:45:01.782Z,98042.63
2023-02-02T15:47:30.573Z,98006.31
2023-02-02T15:49:57.549Z,97974.28
2023-02-02T15:52:27.799Z,97967.31
2023-02-02T15:54:58.076Z,98031.41
2023-02-02T15:57:34.181Z,98081.22
2023-02-02T16:00:02.607Z,98064.97
2023-02-02T16:02:36.645Z,98103.72
2023-02-02T16:05:22.408Z,98114.34
2023-02-02T16:08:03.527Z,98091.59
2023-02-02T16:10:30.492Z,98054.91
2023-02-02T16:12:59.582Z,98036.22
2023-02-02T16:15:27.999Z,98041.88
2023-02-02T16:18:15.373Z,97992.41
2023-02-02T16:20:42.351Z,98001.78
2023-02-02T16:23:14.036Z,98003.13
2023-02-02T16:25:51.702Z,97943.03
2023-02-02T16:28:19.334Z,97892.00
2023-02-02T16:30:46.002Z,97884.25
2023-02-02T16:33:27.568Z,97865.97
2023-02-02T16:35:54.548Z,97831.97
2023-02-02T16:38:27.185Z,97826.91
2023-02-02T16:41:07.541Z,97989.47
2023-02-02T16:43:35.880Z,98025.28
2023-02-02T16:46:05.055Z,98003.59
2023-02-02T16:48:57.169Z,97985.75
2023-02-02T16:51:33.729Z,97942.38
2023-02-02T16:54:20.761Z,97866.63
2023-02-02T16:56:51.510Z,97818.75
2023-02-02T16:59:26.018Z,97795.72
2023-02-02T17:01:56.098Z,97781.94
2023-02-02T17:04:28.198Z,97775.84
2023-02-02T17:06:57.353Z,97786.16
2023-02-02T17:09:34.552Z,97861.16
2023-02-02T17:12:31.957Z,97838.84
2023-02-02T17:15:03.401Z,97909.38
2023-02-02T17:17:30.185Z,97914.84
2023-02-02T17:19:56.783Z,97931.50
2023-02-02T17:22:25.502Z,97861.50
2023-02-02T17:24:53.987Z,97799.69
2023-02-02T17:27:28.269Z,97755.78
2023-02-02T17:29:55.191Z,97796.00
2023-02-02T17:32:21.689Z,97790.81
2023-02-02T17:34:48.143Z,97801.75
2023-02-02T17:37:15.531Z,97782.34
2023-02-02T17:39:43.311Z,97752.59
2023-02-02T17:42:30.680Z,97721.75
2023-02-02T17:44:57.184Z,97659.91
2023-02-02T17:47:23.708Z,97647.19
2023-02-02T17:49:50.249Z,97663.03
2023-02-02T17:52:18.017Z,97758.13
2023-02-02T17:54:45.657Z,97746.06
2023-02-02T17:57:12.098Z,97648.38
2023-02-02T17:59:38.669Z,97582.19
2023-02-02T18:02:05.225Z,97621.69
2023-02-02T18:04:31.740Z,97640.69
2023-02-02T18:06:58.199Z,97703.25
2023-02-02T18:09:26.212Z,97697.47
2023-02-02T18:11:52.689Z,97666.63
2023-02-02T18:14:22.165Z,97619.25
2023-02-02T18:16:48.633Z,97581.78
2023-02-02T18:19:15.120Z,97550.09
2023-02-02T18:21:42.840Z,97540.56
2023-02-02T18:24:13.585Z,97619.34
2023-02-02T18:26:40.953Z,97743.16
2023-02-02T18:29:08.849Z,97728.94
2023-02-02T18:31:35.485Z,97680.09
2023-02-02T18:34:02.071Z,97674.28
2023-02-02T18:36:28.682Z,97636.31
2023-02-02T18:38:56.206Z,97588.75
2023-02-02T18:41:22.900Z,97597.47
2023-02-02T18:43:49.889Z,97627.34
2023-02-02T18:46:16.935Z,97568.66
2023-02-02T18:48:43.475Z,97554.31
2023-02-02T18:51:19.341Z,97630.19
2023-02-02T18:53:46.573Z,97646.81
2023-02-02T18:56:13.518Z,97676.16
2023-02-02T18:58:40.000Z,97702.34
2023-02-02T19:01:08.341Z,97704.63
2023-02-02T19:03:36.590Z,97707.84
2023-02-02T19:06:22.461Z,97745.38
2023-02-02T19:08:49.034Z,97783.06
2023-02-02T19:11:17.489Z,97810.88
2023-02-02T19:13:44.359Z,97806.22
2023-02-02T19:16:29.678Z,97813.50
2023-02-02T19:18:57.424Z,97819.66
2023-02-02T19:21:25.349Z,97809.69
2023-02-02T19:23:53.334Z,97844.97
2023-02-02T19:26:24.783Z,97862.88
2023-02-02T19:28:52.080Z,97859.97
2023-02-02T19:31:18.960Z,97873.72
2023-02-02T19:33:49.629Z,97874.44
2023-02-02T19:36:26.809Z,97878.75
2023-02-02T19:38:59.014Z,97871.53
2023-02-02T19:41:27.848Z,97864.94
2023-02-02T19:44:06.389Z,97882.06
2023-02-02T19:46:40.728Z,97901.13
2023-02-02T19:49:14.992Z,97914.44
2023-02-02T19:51:45.440Z,97934.84
2023-02-02T19:54:32.162Z,97949.88
2023-02-02T19:57:00.679Z,97957.56
2023-02-02T19:59:32.296Z,97982.19
2023-02-02T20:02:03.670Z,98000.53
2023-02-02T20:04:32.205Z,98001.09
2023-02-02T20:06:59.937Z,97985.28
2023-02-02T20:09:29.946Z,97966.88
2023-02-02T20:11:56.678Z,97959.66
2023-02-02T20:14:30.396Z,97960.31
2023-02-02T20:17:00.823Z,97977.88
2023-02-02T20:19:29.060Z,98000.00
2023-02-02T20:21:55.972Z,98008.94
2023-02-02T20:24:24.179Z,98021.88
2023-02-02T20:26:51.873Z,98043.75
2023-02-02T20:29:18.433Z,98058.25
2023-02-02T20:31:46.014Z,98067.09
2023-02-02T20:34:35.437Z,98076.03
2023-02-02T20:37:22.241Z,98080.28
2023-02-02T20:39:54.837Z,98075.34
2023-02-02T20:42:21.585Z,98086.72
2023-02-02T20:44:48.129Z,98086.25
2023-02-02T20:47:16.099Z,98081.31
2023-02-02T20:49:43.051Z,98079.09
2023-02-02T20:52:12.012Z,98077.94
2023-02-02T20:54:40.697Z,98084.72
2023-02-02T20:57:07.242Z,98086.59
2023-02-02T20:59:33.808Z,98086.59
2023-02-02T21:02:00.506Z,98092.78
2023-02-02T21:04:27.559Z,98084.66
2023-02-02T21:06:55.437Z,98091.31
2023-02-02T21:09:23.458Z,98115.91
2023-02-02T21:11:49.969Z,98113.59
2023-02-02T21:14:17.660Z,98116.69
2023-02-02T21:16:44.495Z,98121.16
2023-02-02T21:19:11.180Z,98117.84
2023-02-02T21:21:37.698Z,98106.09
2023-02-02T21:24:04.848Z,98106.00
2023-02-02T21:26:33.312Z,98116.34
2023-02-02T21:28:59.903Z,98111.53
2023-02-02T21:31:27.198Z,98112.78
2023-02-02T21:33:54.158Z,98116.69
2023-02-02T21:36:28.198Z,98110.84
2023-02-02T21:38:58.764Z,98093.31
2023-02-02T21:41:31.200Z,98089.25
2023-02-02T21:43:59.524Z,98107.28
2023-02-02T21:46:31.107Z,98120.25
2023-02-02T21:48:58.747Z,98129.84
2023-02-02T21:51:27.288Z,98138.50
2023-02-02T21:53:55.014Z,98153.03
2023-02-02T21:56:27.270Z,98150.56
2023-02-02T21:58:55.589Z,98139.47
2023-02-02T22:01:36.629Z,98141.66
2023-02-02T22:04:03.425Z,98131.94
2023-02-02T22:06:32.876Z,98129.97
2023-02-02T22:09:01.509Z,98129.09
2023-02-02T22:11:31.919Z,98135.78
2023-02-02T22:14:17.634Z,98145.75
2023-02-02T22:16:48.670Z,98156.84
2023-02-02T22:19:24.161Z,98148.81
2023-02-02T22:21:50.671Z,98141.94
2023-02-02T22:24:17.355Z,98151.09
2023-02-02T22:26:43.966Z,98160.09
2023-02-02T22:29:16.390Z,98168.97
2023-02-02T22:31:44.322Z,98180.16
2023-02-02T22:34:10.877Z,98181.66
2023-02-02T22:36:37.417Z,98184.94
2023-02-02T22:39:03.946Z,98177.50
2023-02-02T22:41:30.481Z,98170.53
2023-02-02T22:43:56.990Z,98159.31
2023-02-02T22:46:24.921Z,98178.88
2023-02-02T22:48:51.457Z,98182.97
2023-02-02T22:51:20.318Z,98189.13
2023-02-02T22:53:47.270Z,98158.44
2023-02-02T22:56:15.176Z,98151.97
2023-02-02T22:58:41.634Z,98159.25
2023-02-02T23:01:09.442Z,98238.00
2023-02-02T23:03:35.894Z,98255.78
2023-02-02T23:06:02.438Z,98246.41
2023-02-02T23:08:28.878Z,98215.41
2023-02-02T23:10:55.374Z,98191.13
2023-02-02T23:13:21.834Z,98186.44
2023-02-02T23:15:49.455Z,98187.94
2023-02-02T23:18:15.933Z,98152.47
2023-02-02T23:20:42.476Z,98123.31
2023-02-02T23:23:08.978Z,98091.41
2023-02-02T23:25:36.087Z,98059.38
2023-02-02T23:28:02.723Z,98046.53
2023-02-02T23:30:29.306Z,98028.41
2023-02-02T23:32:55.848Z,97989.03
2023-02-02T23:35:22.402Z,98005.94
2023-02-02T23:37:48.997Z,97981.03
2023-02-02T23:40:15.667Z,97895.41
2023-02-02T23:42:42.276Z,97849.03
2023-02-02T23:45:09.122Z,97812.53
2023-02-02T23:47:37.141Z,97889.06
2023-02-02T23:50:05.375Z,97952.94
2023-02-02T23:52:34.409Z,97980.38
2023-02-02T23:55:01.567Z,97953.19
2023-02-02T23:57:29.347Z,97943.00
2023-02-02T23:59:55.809Z,97964.63
